Time;durP1;ratioP1;P1;durP2;ratioP2;P2;SDS_P1;SDS_P2;PMS_P1;PMS_P2;Temp;Humidity;BMP_temperature;BMP_pressure;BME280_temperature;BME280_humidity;BME280_pressure;Samples;Min_cycle;Max_cycle;Signal;HPM_P1;HPM_P2
2022/12/24 00:00:26;;;;;;;14.20;10.47;;;;;21.20;99497.00;;;;2070516;28;20222;-52
2022/12/24 00:01:27;;;;;;;13.63;9.80;;;;;21.10;99476.00;;;;2063571;28;20298;-51
2022/12/24 00:02:27;;;;;;;18.30;11.40;;;;;21.10;99486.00;;;;2061968;28;20542;-52
2022/12/24 00:03:28;;;;;;;14.40;10.00;;;;;21.10;99486.00;;;;2062148;28;20203;-52
2022/12/24 00:04:28;;;;;;;17.40;10.73;;;;;21.10;99489.00;;;;2062172;28;20253;-52
2022/12/24 00:05:28;;;;;;;17.93;11.50;;;;;21.10;99494.00;;;;2062850;28;20211;-52
2022/12/24 00:06:29;;;;;;;13.43;9.73;;;;;21.10;99500.00;;;;2063178;28;20221;-52
2022/12/24 00:07:29;;;;;;;14.90;10.77;;;;;21.10;99507.00;;;;2063280;28;20691;-52
2022/12/24 00:08:29;;;;;;;16.57;10.17;;;;;21.10;99506.00;;;;2063419;28;20750;-52
2022/12/24 00:09:29;;;;;;;15.50;10.47;;;;;21.10;99505.00;;;;2061847;28;20301;-53
2022/12/24 00:10:30;;;;;;;14.00;9.67;;;;;21.10;99498.00;;;;2062634;28;20741;-52
2022/12/24 00:11:30;;;;;;;17.20;10.20;;;;;21.10;99502.00;;;;2061527;28;20999;-51
2022/12/24 00:12:30;;;;;;;13.70;9.30;;;;;21.10;99516.00;;;;2061646;28;20787;-51
2022/12/24 00:13:31;;;;;;;14.60;9.60;;;;;21.00;99506.00;;;;2062257;28;20663;-52
2022/12/24 00:14:31;;;;;;;16.07;9.20;;;;;21.10;99507.00;;;;2052626;28;20237;-52
2022/12/24 00:15:31;;;;;;;12.00;8.50;;;;;21.10;99499.00;;;;2062138;28;20211;-51
2022/12/24 00:16:32;;;;;;;13.60;8.47;;;;;21.10;99498.00;;;;2062939;28;20266;-52
2022/12/24 00:17:32;;;;;;;12.87;8.93;;;;;21.10;99501.00;;;;2063028;28;20246;-52
2022/12/24 00:18:33;;;;;;;13.23;8.90;;;;;21.10;99506.00;;;;2061986;28;20261;-52
2022/12/24 00:19:33;;;;;;;13.57;8.67;;;;;21.10;99505.00;;;;2062236;28;20215;-52
2022/12/24 00:20:33;;;;;;;17.20;9.57;;;;;21.10;99517.00;;;;2062534;28;20239;-52
2022/12/24 00:21:34;;;;;;;15.43;9.20;;;;;21.10;99511.00;;;;2062972;28;20237;-52
2022/12/24 00:22:34;;;;;;;13.40;8.50;;;;;21.10;99511.00;;;;2062052;28;20223;-52
2022/12/24 00:23:34;;;;;;;13.10;9.07;;;;;21.10;99501.00;;;;2062585;28;20250;-53
2022/12/24 00:24:34;;;;;;;11.73;8.10;;;;;21.00;99520.00;;;;2062472;28;20218;-52
2022/12/24 00:25:35;;;;;;;12.43;8.10;;;;;21.10;99508.00;;;;2062145;28;20219;-52
2022/12/24 00:26:35;;;;;;;13.60;8.30;;;;;21.00;99514.00;;;;2069106;28;20248;-52
2022/12/24 00:27:35;;;;;;;13.23;8.33;;;;;21.00;99510.00;;;;2070633;28;20243;-52
2022/12/24 00:28:36;;;;;;;12.97;9.17;;;;;21.00;99514.00;;;;2070639;28;20219;-52
2022/12/24 00:29:36;;;;;;;16.47;8.60;;;;;21.10;99519.00;;;;2071057;28;20253;-51
2022/12/24 00:30:37;;;;;;;10.70;7.50;;;;;21.00;99522.00;;;;2070639;28;20256;-52
2022/12/24 00:31:38;;;;;;;16.75;9.50;;;;;21.00;99518.00;;;;2070813;28;20222;-52
2022/12/24 00:32:38;;;;;;;11.20;7.73;;;;;21.00;99517.00;;;;2070079;28;20685;-52
2022/12/24 00:33:39;;;;;;;11.47;6.50;;;;;21.00;99533.00;;;;2070291;28;20714;-51
2022/12/24 00:34:39;;;;;;;13.63;7.60;;;;;21.10;99522.00;;;;2070604;28;20725;-52
2022/12/24 00:35:39;;;;;;;17.00;8.03;;;;;21.00;99514.00;;;;2070774;28;20211;-52
2022/12/24 00:36:40;;;;;;;12.13;8.10;;;;;21.10;99524.00;;;;2070969;28;20214;-50
2022/12/24 00:37:40;;;;;;;13.40;7.83;;;;;21.10;99526.00;;;;2071002;28;20284;-51
2022/12/24 00:38:41;;;;;;;14.03;8.10;;;;;21.10;99520.00;;;;2070500;28;20313;-51
2022/12/24 00:39:41;;;;;;;11.67;7.07;;;;;21.00;99518.00;;;;2070673;28;20641;-51
2022/12/24 00:40:41;;;;;;;12.20;7.00;;;;;21.00;99531.00;;;;2070868;28;20256;-53
2022/12/24 00:41:41;;;;;;;11.50;6.30;;;;;21.00;99523.00;;;;2070373;28;20218;-52
2022/12/24 00:42:42;;;;;;;11.20;6.37;;;;;21.00;99532.00;;;;2070022;28;20213;-51
2022/12/24 00:43:42;;;;;;;12.80;7.10;;;;;21.00;99534.00;;;;2070890;28;20268;-52
2022/12/24 00:44:43;;;;;;;10.73;6.33;;;;;21.00;99536.00;;;;2070543;28;20220;-52
2022/12/24 00:45:43;;;;;;;15.37;7.57;;;;;21.00;99532.00;;;;2070827;28;20225;-52
2022/12/24 00:46:43;;;;;;;11.50;6.73;;;;;21.00;99532.00;;;;2070403;28;20214;-53
2022/12/24 00:47:43;;;;;;;14.07;7.03;;;;;20.70;99532.00;;;;2070849;28;20250;-52
2022/12/24 00:48:44;;;;;;;12.60;6.43;;;;;21.00;99536.00;;;;2061955;28;20403;-52
2022/12/24 00:49:44;;;;;;;11.77;6.77;;;;;21.00;99508.00;;;;2058100;28;20223;-52
2022/12/24 00:50:44;;;;;;;17.03;6.47;;;;;21.00;99528.00;;;;2070735;28;20301;-52
2022/12/24 00:51:45;;;;;;;10.57;6.23;;;;;21.00;99543.00;;;;2068096;28;20214;-52
2022/12/24 00:52:45;;;;;;;10.47;6.13;;;;;21.00;99530.00;;;;2062132;28;20222;-52
2022/12/24 00:53:46;;;;;;;11.23;6.37;;;;;21.00;99536.00;;;;2062545;28;20302;-52
2022/12/24 00:54:46;;;;;;;11.03;6.00;;;;;21.00;99535.00;;;;2062626;28;20214;-53
2022/12/24 00:55:46;;;;;;;10.47;5.70;;;;;21.00;99533.00;;;;2063522;28;20293;-52
2022/12/24 00:56:46;;;;;;;11.73;6.20;;;;;21.00;99553.00;;;;2062920;28;20215;-52
2022/12/24 00:57:47;;;;;;;11.47;7.03;;;;;21.00;99548.00;;;;2062578;28;20207;-52
2022/12/24 00:58:47;;;;;;;13.23;6.37;;;;;21.00;99540.00;;;;2062375;28;20298;-52
2022/12/24 00:59:47;;;;;;;12.30;6.13;;;;;21.00;99553.00;;;;2062664;28;20695;-55
2022/12/24 01:00:48;;;;;;;12.60;6.20;;;;;21.00;99551.00;;;;2062558;28;20210;-51
2022/12/24 01:01:48;;;;;;;11.57;6.17;;;;;21.00;99560.00;;;;2061700;28;20207;-53
2022/12/24 01:02:48;;;;;;;10.70;5.60;;;;;20.90;99553.00;;;;2062629;28;20647;-53
2022/12/24 01:03:49;;;;;;;8.90;5.33;;;;;21.00;99557.00;;;;2062596;28;20631;-52
2022/12/24 01:06:10;;;;;;;9.25;5.68;;;;;21.00;99562.00;;;;2060714;28;20215;-52
2022/12/24 01:07:11;;;;;;;14.55;6.80;;;;;21.00;99565.00;;;;2063050;28;20310;-52
2022/12/24 01:08:11;;;;;;;9.17;5.70;;;;;21.00;99555.00;;;;2062033;28;20219;-52
2022/12/24 01:09:11;;;;;;;11.23;5.83;;;;;20.90;99557.00;;;;2062981;28;20249;-52
2022/12/24 01:10:13;;;;;;;9.87;5.40;;;;;20.90;99554.00;;;;2062364;28;20215;-51
2022/12/24 01:11:13;;;;;;;9.57;5.15;;;;;20.90;99567.00;;;;2053887;28;20290;-52
2022/12/24 01:12:14;;;;;;;13.07;6.10;;;;;20.90;99567.00;;;;2053065;28;20231;-51
2022/12/24 01:13:14;;;;;;;11.80;5.90;;;;;20.90;99568.00;;;;2062610;28;20226;-51
2022/12/24 01:14:15;;;;;;;10.80;5.50;;;;;20.80;99567.00;;;;2062765;28;20215;-52
2022/12/24 01:15:15;;;;;;;9.00;5.03;;;;;20.90;99557.00;;;;2062665;28;20241;-52
2022/12/24 01:16:17;;;;;;;9.90;5.73;;;;;20.90;99562.00;;;;2062516;28;20218;-52
2022/12/24 01:17:18;;;;;;;11.48;6.40;;;;;20.90;99555.00;;;;2062579;28;20215;-52
2022/12/24 01:18:18;;;;;;;9.37;4.87;;;;;20.90;99588.00;;;;2068617;28;20226;-52
2022/12/24 01:19:18;;;;;;;12.03;5.43;;;;;20.90;99570.00;;;;2070879;28;20241;-52
2022/12/24 01:20:19;;;;;;;9.90;5.23;;;;;20.90;99584.00;;;;2071006;28;20210;-52
2022/12/24 01:21:19;;;;;;;9.13;5.13;;;;;20.90;99579.00;;;;2070310;28;20221;-51
2022/12/24 01:22:19;;;;;;;12.90;6.00;;;;;20.90;99585.00;;;;2070294;28;20300;-51
2022/12/24 01:23:20;;;;;;;9.60;5.37;;;;;20.90;99594.00;;;;2070998;28;20210;-53
2022/12/24 01:24:20;;;;;;;10.50;5.40;;;;;20.90;99594.00;;;;2070755;28;20265;-53
2022/12/24 01:25:20;;;;;;;12.07;4.97;;;;;20.90;99593.00;;;;2070851;28;20238;-52
2022/12/24 01:26:21;;;;;;;13.20;5.17;;;;;20.90;99599.00;;;;2071113;28;20214;-52
2022/12/24 01:27:21;;;;;;;11.73;4.90;;;;;20.90;99595.00;;;;2070898;28;20206;-51
2022/12/24 01:28:21;;;;;;;9.40;4.60;;;;;20.90;99610.00;;;;2071034;28;20246;-52
2022/12/24 01:29:22;;;;;;;10.80;4.73;;;;;20.90;99604.00;;;;2071197;28;20684;-52
2022/12/24 01:30:22;;;;;;;8.80;4.60;;;;;20.90;99608.00;;;;2070842;28;20579;-53
2022/12/24 01:31:22;;;;;;;10.73;5.20;;;;;20.90;99602.00;;;;2070588;28;20244;-52
2022/12/24 01:32:23;;;;;;;8.90;4.63;;;;;20.90;99611.00;;;;2069748;28;20271;-51
2022/12/24 01:33:23;;;;;;;10.47;5.10;;;;;20.90;99617.00;;;;2070677;28;20587;-52
2022/12/24 01:34:23;;;;;;;9.00;5.27;;;;;20.90;99604.00;;;;2071118;28;20698;-52
2022/12/24 01:35:24;;;;;;;8.67;3.80;;;;;20.90;99612.00;;;;2067192;28;20215;-51
2022/12/24 01:36:24;;;;;;;10.43;4.80;;;;;20.90;99612.00;;;;2062942;28;20302;-51
2022/12/24 01:37:24;;;;;;;9.43;4.90;;;;;20.80;99614.00;;;;2062708;28;20240;-53
2022/12/24 01:38:25;;;;;;;8.60;4.67;;;;;20.90;99615.00;;;;2062931;28;20219;-52
2022/12/24 01:39:25;;;;;;;9.43;4.53;;;;;20.90;99621.00;;;;2062360;28;20245;-52
2022/12/24 01:43:24;;;;;;;9.70;4.65;;;;;20.90;99617.00;;;;2070630;28;20206;-51
2022/12/24 01:44:30;;;;;;;11.55;5.00;;;;;20.80;99621.00;;;;2062268;28;20602;-51
2022/12/24 01:45:39;;;;;;;10.88;4.13;;;;;20.80;99621.00;;;;2061488;28;20278;-52
2022/12/24 01:46:39;;;;;;;11.52;4.93;;;;;20.80;99618.00;;;;2063247;28;20737;-52
2022/12/24 01:47:40;;;;;;;10.27;4.50;;;;;20.80;99621.00;;;;2069973;28;20210;-52
2022/12/24 01:48:48;;;;;;;10.40;4.80;;;;;20.80;99626.00;;;;2061883;28;20309;-51
2022/12/24 01:49:51;;;;;;;7.53;4.30;;;;;20.80;99620.00;;;;2047029;28;20234;-52
2022/12/24 01:50:55;;;;;;;10.70;4.93;;;;;20.80;99612.00;;;;2047387;28;20347;-52
2022/12/24 01:51:58;;;;;;;6.55;3.75;;;;;20.80;99622.00;;;;2061058;28;20260;-52
2022/12/24 01:52:58;;;;;;;8.90;4.43;;;;;20.80;99622.00;;;;2061650;28;20293;-52
2022/12/24 01:54:06;;;;;;;9.57;4.43;;;;;20.80;99630.00;;;;2053360;28;20286;-52
2022/12/24 01:55:09;;;;;;;9.80;4.60;;;;;20.80;99622.00;;;;2054732;28;20216;-52
2022/12/24 01:56:09;;;;;;;12.10;4.90;;;;;20.80;99635.00;;;;2048896;28;20264;-51
2022/12/24 01:57:13;;;;;;;7.47;3.80;;;;;20.80;99630.00;;;;2054070;28;20739;-52
2022/12/24 01:58:14;;;;;;;9.50;4.30;;;;;20.80;99632.00;;;;2067759;28;20206;-52
2022/12/24 01:59:14;;;;;;;10.30;4.37;;;;;20.80;99625.00;;;;2062158;28;20918;-51
2022/12/24 02:00:15;;;;;;;7.67;3.60;;;;;20.80;99631.00;;;;2053956;28;20269;-52
2022/12/24 02:01:16;;;;;;;11.20;4.40;;;;;20.80;99627.00;;;;2061892;28;20505;-51
2022/12/24 02:02:16;;;;;;;9.33;4.13;;;;;20.80;99637.00;;;;2069318;28;20203;-51
2022/12/24 02:03:17;;;;;;;10.30;4.10;;;;;20.80;99635.00;;;;2061374;28;20207;-52
2022/12/24 02:04:50;;;;;;;8.00;3.90;;;;;20.80;99645.00;;;;2045274;28;20650;-51
2022/12/24 02:05:52;;;;;;;9.20;4.38;;;;;20.70;99636.00;;;;2049722;28;20251;-52
2022/12/24 02:06:52;;;;;;;10.32;4.18;;;;;20.80;99639.00;;;;2040430;28;20217;-52
2022/12/24 02:07:53;;;;;;;7.50;3.93;;;;;20.80;99635.00;;;;2053883;28;20215;-52
2022/12/24 02:08:54;;;;;;;9.73;4.13;;;;;20.70;99642.00;;;;2069798;28;20697;-52
2022/12/24 02:09:58;;;;;;;8.65;4.10;;;;;20.70;99644.00;;;;2061509;28;20227;-52
2022/12/24 02:10:58;;;;;;;8.45;3.70;;;;;20.80;99634.00;;;;2062039;28;20215;-53
2022/12/24 02:11:59;;;;;;;8.77;3.80;;;;;20.70;99646.00;;;;2066246;28;20241;-52
2022/12/24 02:12:59;;;;;;;7.83;3.30;;;;;20.70;99637.00;;;;2062430;28;20211;-52
2022/12/24 02:13:59;;;;;;;9.47;3.90;;;;;20.70;99644.00;;;;2053862;28;20219;-51
2022/12/24 02:15:00;;;;;;;9.00;4.10;;;;;20.70;99647.00;;;;2053888;28;20221;-52
2022/12/24 02:16:42;;;;;;;7.50;4.10;;;;;20.70;99647.00;;;;2053909;28;20211;-52
2022/12/24 02:17:42;;;;;;;10.25;3.45;;;;;20.70;99647.00;;;;2061958;28;20305;-52
2022/12/24 02:18:57;;;;;;;9.43;4.00;;;;;20.70;99650.00;;;;2061969;28;20277;-52
2022/12/24 02:20:18;;;;;;;9.80;3.95;;;;;20.70;99656.00;;;;2067939;28;20240;-52
2022/12/24 02:21:37;;;;;;;9.40;3.97;;;;;20.70;99647.00;;;;2061295;28;20237;-52
2022/12/24 02:22:55;;;;;;;9.48;3.70;;;;;20.80;99662.00;;;;2054653;28;20319;-53
2022/12/24 02:24:08;;;;;;;10.65;4.43;;;;;20.70;99667.00;;;;2064526;28;20311;-51
2022/12/24 02:25:32;;;;;;;7.53;3.65;;;;;20.70;99661.00;;;;2061854;28;20217;-51
2022/12/24 02:26:50;;;;;;;8.45;3.50;;;;;20.70;99669.00;;;;2049159;28;20693;-51
2022/12/24 02:27:56;;;;;;;6.50;4.00;;;;;20.70;99674.00;;;;2051579;28;20231;-52
2022/12/24 02:29:15;;;;;;;8.90;4.07;;;;;20.70;99676.00;;;;2063417;28;20226;-52
2022/12/24 02:30:31;;;;;;;8.40;3.58;;;;;20.70;99681.00;;;;2070187;28;20276;-52
2022/12/24 02:31:40;;;;;;;10.30;4.38;;;;;20.70;99671.00;;;;2070108;28;20229;-52
2022/12/24 02:32:51;;;;;;;10.13;4.10;;;;;20.70;99681.00;;;;2060750;28;20269;-52
2022/12/24 02:34:05;;;;;;;9.15;4.15;;;;;20.60;99689.00;;;;2054919;28;20703;-52
2022/12/24 02:35:33;;;;;;;11.38;4.75;;;;;20.70;99687.00;;;;2063486;28;20295;-52
2022/12/24 02:36:37;;;;;;;8.02;3.55;;;;;20.70;99683.00;;;;2061692;28;20792;-53
2022/12/24 02:37:43;;;;;;;8.93;3.80;;;;;20.70;99692.00;;;;2048752;28;20293;-52
2022/12/24 02:38:49;;;;;;;7.47;3.55;;;;;20.70;99690.00;;;;2047105;28;20212;-51
2022/12/24 02:39:58;;;;;;;8.27;3.65;;;;;20.70;99686.00;;;;2054573;28;20220;-52
2022/12/24 02:41:07;;;;;;;8.48;3.80;;;;;20.70;99688.00;;;;2062732;28;20243;-52
2022/12/24 02:42:07;;;;;;;8.02;3.75;;;;;20.70;99691.00;;;;2060398;28;20214;-52
2022/12/24 02:43:13;;;;;;;10.47;3.80;;;;;20.70;99688.00;;;;2045863;28;20240;-51
2022/12/24 02:44:14;;;;;;;10.88;4.10;;;;;20.70;99701.00;;;;2046467;28;20543;-51
2022/12/24 02:45:22;;;;;;;10.00;3.40;;;;;20.70;99706.00;;;;2046061;28;20215;-51
2022/12/24 02:46:25;;;;;;;9.00;3.53;;;;;20.70;99693.00;;;;2054861;28;20212;-51
2022/12/24 02:47:25;;;;;;;10.77;3.00;;;;;20.60;99699.00;;;;2054955;28;20222;-52
2022/12/24 02:48:26;;;;;;;9.10;4.20;;;;;20.70;99697.00;;;;2053805;28;20308;-52
2022/12/24 02:49:26;;;;;;;11.13;3.90;;;;;20.70;99691.00;;;;2053818;28;20596;-52
2022/12/24 02:50:27;;;;;;;7.17;3.10;;;;;20.70;99698.00;;;;2057078;28;20851;-52
2022/12/24 02:51:27;;;;;;;8.30;4.00;;;;;20.70;99697.00;;;;2062898;28;20698;-51
2022/12/24 02:52:32;;;;;;;7.30;3.50;;;;;20.60;99697.00;;;;2063374;28;20218;-50
2022/12/24 02:53:32;;;;;;;6.15;3.35;;;;;20.70;99698.00;;;;2071915;28;20218;-51
2022/12/24 02:54:33;;;;;;;8.03;3.40;;;;;20.70;99706.00;;;;2071727;28;20210;-51
2022/12/24 02:55:41;;;;;;;11.27;3.77;;;;;20.60;99691.00;;;;2072152;28;20213;-53
2022/12/24 02:57:06;;;;;;;8.75;3.63;;;;;20.70;99707.00;;;;2051466;28;20211;-51
2022/12/24 02:58:09;;;;;;;9.85;4.00;;;;;20.60;99714.00;;;;2054466;28;20878;-51
2022/12/24 02:59:29;;;;;;;9.45;3.55;;;;;20.60;99715.00;;;;2048460;28;20219;-51
2022/12/24 03:00:56;;;;;;;9.32;3.42;;;;;20.60;99709.00;;;;2057932;28;20219;-52
2022/12/24 03:02:19;;;;;;;7.35;2.95;;;;;20.60;99708.00;;;;2053642;28;20243;-51
2022/12/24 03:03:22;;;;;;;8.55;3.15;;;;;20.60;99708.00;;;;2062356;28;20214;-51
2022/12/24 03:04:40;;;;;;;6.40;2.90;;;;;20.60;99706.00;;;;2066280;28;20214;-52
2022/12/24 03:06:18;;;;;;;7.65;3.45;;;;;20.60;99701.00;;;;2067788;28;20245;-51
2022/12/24 03:07:20;;;;;;;9.02;3.38;;;;;20.60;99706.00;;;;2024452;29;20289;-51
2022/12/24 03:08:20;;;;;;;8.02;3.53;;;;;20.70;99708.00;;;;2024954;28;20719;-51
2022/12/24 03:09:31;;;;;;;8.43;3.70;;;;;20.60;99706.00;;;;2063538;28;20273;-52
2022/12/24 03:10:54;;;;;;;8.65;3.17;;;;;20.60;99718.00;;;;2050846;28;20223;-53
2022/12/24 03:11:58;;;;;;;9.18;3.72;;;;;20.60;99716.00;;;;2054473;28;20346;-53
2022/12/24 03:13:05;;;;;;;7.18;3.03;;;;;20.60;99715.00;;;;2062429;28;20265;-52
2022/12/24 03:14:05;;;;;;;9.50;3.70;;;;;20.60;99702.00;;;;2058641;28;20238;-53
2022/12/24 03:15:07;;;;;;;10.53;3.00;;;;;20.60;99703.00;;;;2058808;28;20361;-52
2022/12/24 03:16:09;;;;;;;11.00;3.75;;;;;20.60;99720.00;;;;2055130;28;20267;-52
2022/12/24 03:17:09;;;;;;;8.85;3.53;;;;;20.60;99722.00;;;;2055636;28;20226;-51
2022/12/24 03:18:10;;;;;;;6.30;3.10;;;;;20.60;99710.00;;;;2058657;28;20215;-52
2022/12/24 03:19:11;;;;;;;8.35;2.90;;;;;20.60;99708.00;;;;2051490;28;20218;-54
2022/12/24 03:20:12;;;;;;;5.87;3.17;;;;;20.60;99718.00;;;;2055364;28;20203;-52
2022/12/24 03:21:17;;;;;;;8.80;3.53;;;;;20.60;99711.00;;;;2055329;28;20215;-51
2022/12/24 03:22:17;;;;;;;6.85;3.53;;;;;20.60;99717.00;;;;2054179;28;20478;-51
2022/12/24 03:23:18;;;;;;;7.87;2.93;;;;;20.60;99713.00;;;;2042973;28;20577;-51
2022/12/24 03:24:18;;;;;;;6.87;3.50;;;;;20.50;99714.00;;;;2046667;28;20231;-53
2022/12/24 03:25:19;;;;;;;8.57;3.30;;;;;20.60;99719.00;;;;2061552;28;20225;-53
2022/12/24 03:26:19;;;;;;;8.30;2.80;;;;;20.60;99714.00;;;;2062977;28;20306;-51
2022/12/24 03:27:20;;;;;;;7.40;3.37;;;;;20.60;99711.00;;;;2055373;28;20211;-52
2022/12/24 03:28:23;;;;;;;6.73;2.93;;;;;20.60;99718.00;;;;2055147;28;20231;-52
2022/12/24 03:29:23;;;;;;;8.85;3.33;;;;;20.60;99719.00;;;;2047182;28;20297;-52
2022/12/24 03:30:24;;;;;;;7.67;2.80;;;;;20.60;99718.00;;;;2039055;29;20379;-52
2022/12/24 03:31:24;;;;;;;6.33;3.13;;;;;20.60;99715.00;;;;2047048;28;20295;-52
2022/12/24 03:32:27;;;;;;;10.80;3.10;;;;;20.60;99734.00;;;;2046477;28;20223;-51
2022/12/24 03:33:27;;;;;;;6.65;3.75;;;;;20.60;99736.00;;;;2058889;28;20283;-52
2022/12/24 03:34:28;;;;;;;7.23;3.20;;;;;20.60;99724.00;;;;2071585;28;20214;-52
2022/12/24 03:35:28;;;;;;;9.03;3.37;;;;;20.60;99740.00;;;;2062855;28;20234;-52
2022/12/24 03:36:29;;;;;;;9.10;3.20;;;;;20.60;99729.00;;;;2063069;28;20619;-52
2022/12/24 03:37:29;;;;;;;7.78;2.95;;;;;20.60;99719.00;;;;2062910;28;20265;-52
2022/12/24 03:38:30;;;;;;;8.90;3.87;;;;;20.60;99724.00;;;;2062414;28;20215;-52
2022/12/24 03:39:30;;;;;;;7.60;3.17;;;;;20.60;99728.00;;;;2064833;28;20222;-52
2022/12/24 03:40:30;;;;;;;9.30;3.23;;;;;20.60;99734.00;;;;2071607;28;20202;-52
2022/12/24 03:41:31;;;;;;;10.83;2.93;;;;;20.60;99745.00;;;;2071790;28;20237;-51
2022/12/24 03:42:31;;;;;;;8.50;3.70;;;;;20.60;99736.00;;;;2070845;28;20221;-52
2022/12/24 03:43:32;;;;;;;7.27;2.87;;;;;20.60;99725.00;;;;2072019;28;20210;-52
2022/12/24 03:44:32;;;;;;;7.80;3.20;;;;;20.60;99731.00;;;;2071718;28;20297;-52
2022/12/24 03:45:33;;;;;;;6.23;2.43;;;;;20.60;99728.00;;;;2070250;28;20222;-51
2022/12/24 03:46:33;;;;;;;8.43;3.13;;;;;20.60;99740.00;;;;2071222;28;20218;-51
2022/12/24 03:47:33;;;;;;;9.00;2.87;;;;;20.60;99723.00;;;;2071887;28;20721;-51
2022/12/24 03:48:34;;;;;;;8.97;3.10;;;;;20.60;99724.00;;;;2071812;28;20223;-53
2022/12/24 03:49:34;;;;;;;5.93;2.53;;;;;20.50;99725.00;;;;2071573;28;20223;-53
2022/12/24 03:50:35;;;;;;;7.93;2.90;;;;;20.50;99735.00;;;;2071617;28;20259;-52
2022/12/24 03:51:35;;;;;;;7.83;3.30;;;;;20.60;99734.00;;;;2071441;28;22882;-51
2022/12/24 03:52:35;;;;;;;7.83;3.43;;;;;20.60;99746.00;;;;2070925;28;20222;-52
2022/12/24 03:53:36;;;;;;;8.40;2.97;;;;;20.60;99730.00;;;;2071652;28;20226;-51
2022/12/24 03:54:36;;;;;;;7.63;2.57;;;;;20.50;99737.00;;;;2062810;28;20226;-53
2022/12/24 03:55:37;;;;;;;9.13;3.67;;;;;20.50;99733.00;;;;2058660;28;20664;-52
2022/12/24 03:56:37;;;;;;;9.00;2.97;;;;;20.50;99731.00;;;;2063684;28;20719;-51
2022/12/24 03:57:38;;;;;;;7.00;2.70;;;;;20.50;99742.00;;;;2068908;28;20488;-52
2022/12/24 03:58:38;;;;;;;7.83;3.47;;;;;20.50;99741.00;;;;2062819;28;20324;-52
2022/12/24 03:59:38;;;;;;;7.50;2.90;;;;;20.50;99744.00;;;;2062788;28;20288;-51
2022/12/24 04:00:39;;;;;;;8.80;3.10;;;;;20.60;99744.00;;;;2063452;28;20221;-52
2022/12/24 04:01:39;;;;;;;8.00;3.13;;;;;20.50;99739.00;;;;2063231;28;20211;-52
2022/12/24 04:02:39;;;;;;;6.67;2.30;;;;;20.50;99737.00;;;;2065045;28;20229;-52
2022/12/24 04:03:40;;;;;;;5.30;2.43;;;;;20.50;99742.00;;;;2071558;28;20217;-52
2022/12/24 04:04:40;;;;;;;6.50;2.73;;;;;20.50;99736.00;;;;2071218;28;20221;-51
2022/12/24 04:05:40;;;;;;;6.43;2.90;;;;;20.50;99733.00;;;;2071561;28;20214;-52
2022/12/24 04:06:41;;;;;;;7.00;2.93;;;;;20.50;99730.00;;;;2070624;28;20305;-50
2022/12/24 04:07:41;;;;;;;10.30;3.40;;;;;20.50;99749.00;;;;2061336;28;20301;-53
2022/12/24 04:08:41;;;;;;;10.10;2.77;;;;;20.50;99743.00;;;;2053761;28;20227;-52
2022/12/24 04:09:41;;;;;;;7.60;3.20;;;;;20.50;99736.00;;;;2062373;28;20246;-52
2022/12/24 04:10:42;;;;;;;8.17;2.80;;;;;20.50;99734.00;;;;2062293;28;20225;-51
2022/12/24 04:11:42;;;;;;;8.50;3.23;;;;;20.50;99733.00;;;;2061005;28;20880;-52
2022/12/24 04:12:42;;;;;;;8.40;3.30;;;;;20.50;99742.00;;;;2061417;28;20285;-52
2022/12/24 04:13:43;;;;;;;6.40;2.90;;;;;20.50;99739.00;;;;2063002;28;20243;-51
2022/12/24 04:14:43;;;;;;;8.70;2.90;;;;;20.50;99741.00;;;;2062792;28;20219;-52
2022/12/24 04:15:43;;;;;;;7.47;2.63;;;;;20.50;99740.00;;;;2063021;28;20222;-52
2022/12/24 04:16:44;;;;;;;8.93;3.03;;;;;20.50;99743.00;;;;2062391;28;20231;-52
2022/12/24 04:17:44;;;;;;;8.70;3.40;;;;;20.50;99749.00;;;;2062821;28;20265;-53
2022/12/24 04:18:44;;;;;;;7.20;2.57;;;;;20.50;99751.00;;;;2063250;28;20219;-53
2022/12/24 04:19:45;;;;;;;7.10;2.80;;;;;20.50;99763.00;;;;2063355;28;20246;-51
2022/12/24 04:20:45;;;;;;;9.03;3.20;;;;;20.50;99753.00;;;;2066662;28;20221;-53
2022/12/24 04:21:46;;;;;;;8.37;2.77;;;;;20.50;99749.00;;;;2071074;28;20225;-53
2022/12/24 04:22:46;;;;;;;7.70;2.80;;;;;20.50;99761.00;;;;2070483;28;20305;-52
2022/12/24 04:23:46;;;;;;;8.23;3.00;;;;;20.50;99745.00;;;;2070894;28;20222;-51
2022/12/24 04:24:47;;;;;;;7.43;2.50;;;;;20.50;99754.00;;;;2071125;28;20214;-52
2022/12/24 04:25:47;;;;;;;7.37;2.50;;;;;20.50;99758.00;;;;2071144;28;20304;-52
2022/12/24 04:26:47;;;;;;;6.97;2.60;;;;;20.50;99752.00;;;;2071259;28;20214;-52
2022/12/24 04:27:48;;;;;;;7.17;3.00;;;;;20.50;99757.00;;;;2070883;28;20238;-53
2022/12/24 04:28:48;;;;;;;7.97;2.90;;;;;20.50;99765.00;;;;2071093;28;20225;-53
2022/12/24 04:29:49;;;;;;;8.20;2.53;;;;;20.50;99754.00;;;;2071077;28;20206;-51
2022/12/24 04:30:49;;;;;;;5.33;2.50;;;;;20.40;99763.00;;;;2070997;28;20219;-52
2022/12/24 04:31:49;;;;;;;7.87;2.90;;;;;20.40;99758.00;;;;2064710;28;20848;-52
2022/12/24 04:32:50;;;;;;;8.47;3.00;;;;;20.50;99763.00;;;;2063028;28;20269;-52
2022/12/24 04:33:50;;;;;;;8.17;3.27;;;;;20.50;99768.00;;;;2063075;28;20224;-51
2022/12/24 04:34:51;;;;;;;6.80;2.43;;;;;20.50;99767.00;;;;2062879;28;20318;-53
2022/12/24 04:35:51;;;;;;;7.77;2.93;;;;;20.50;99777.00;;;;2063083;28;20697;-51
2022/12/24 04:36:51;;;;;;;5.60;2.53;;;;;20.40;99764.00;;;;2053496;28;20289;-52
2022/12/24 04:37:52;;;;;;;7.23;2.90;;;;;20.50;99778.00;;;;2053983;28;20216;-51
2022/12/24 04:38:52;;;;;;;6.87;2.70;;;;;20.40;99768.00;;;;2067171;28;20237;-52
2022/12/24 04:39:52;;;;;;;7.73;2.90;;;;;20.40;99779.00;;;;2070197;28;20214;-51
2022/12/24 04:41:22;;;;;;;7.10;2.77;;;;;20.40;99776.00;;;;2068656;28;20217;-52
2022/12/24 04:42:22;;;;;;;8.05;2.95;;;;;20.40;99768.00;;;;2048141;28;20217;-51
2022/12/24 04:43:23;;;;;;;6.03;2.90;;;;;20.40;99769.00;;;;2062993;28;20237;-53
2022/12/24 04:44:23;;;;;;;5.63;2.43;;;;;20.50;99775.00;;;;2064413;28;20549;-52
2022/12/24 04:45:23;;;;;;;7.23;2.67;;;;;20.40;99771.00;;;;2071246;28;20579;-52
2022/12/24 04:46:25;;;;;;;9.43;2.20;;;;;20.40;99769.00;;;;2064498;28;20207;-51
2022/12/24 04:47:26;;;;;;;6.93;2.60;;;;;20.40;99776.00;;;;2062614;28;20215;-52
2022/12/24 04:48:26;;;;;;;7.47;2.23;;;;;20.40;99770.00;;;;2054920;28;20243;-51
2022/12/24 04:49:26;;;;;;;5.73;2.70;;;;;20.40;99786.00;;;;2054551;28;20222;-51
2022/12/24 04:50:27;;;;;;;4.80;2.40;;;;;20.40;99772.00;;;;2057725;28;20219;-51
2022/12/24 04:51:27;;;;;;;5.53;2.30;;;;;20.40;99770.00;;;;2062774;28;20246;-50
2022/12/24 04:52:28;;;;;;;5.73;2.00;;;;;20.40;99775.00;;;;2062227;28;20222;-52
2022/12/24 04:53:28;;;;;;;6.03;2.20;;;;;20.40;99773.00;;;;2062942;28;20207;-52
2022/12/24 04:54:29;;;;;;;7.53;2.80;;;;;20.40;99778.00;;;;2058906;28;20223;-51
2022/12/24 04:55:29;;;;;;;5.30;2.63;;;;;20.40;99788.00;;;;2055262;28;20475;-50
2022/12/24 04:56:30;;;;;;;7.30;2.70;;;;;20.40;99779.00;;;;2055016;28;20261;-51
2022/12/24 04:57:32;;;;;;;6.80;2.72;;;;;20.40;99781.00;;;;2055109;28;20312;-52
2022/12/24 04:58:33;;;;;;;5.32;2.45;;;;;20.40;99786.00;;;;2054939;28;20728;-50
2022/12/24 04:59:33;;;;;;;8.17;2.47;;;;;20.40;99781.00;;;;2054254;28;20216;-51
2022/12/24 05:00:33;;;;;;;4.67;1.97;;;;;20.50;99783.00;;;;2059720;28;20684;-52
2022/12/24 05:01:34;;;;;;;5.70;2.30;;;;;20.50;99793.00;;;;2062966;28;20739;-51
2022/12/24 05:02:34;;;;;;;7.60;2.63;;;;;20.40;99788.00;;;;2062035;28;20683;-53
2022/12/24 05:03:34;;;;;;;8.27;2.47;;;;;20.40;99785.00;;;;2062879;28;20707;-52
2022/12/24 05:04:34;;;;;;;6.13;2.73;;;;;20.40;99779.00;;;;2062583;28;20711;-52
2022/12/24 05:05:35;;;;;;;7.17;2.43;;;;;20.40;99788.00;;;;2063079;28;20874;-51
2022/12/24 05:06:35;;;;;;;6.47;2.30;;;;;20.40;99780.00;;;;2069344;28;20217;-51
2022/12/24 05:07:36;;;;;;;6.23;2.27;;;;;20.40;99778.00;;;;2070920;28;20214;-52
2022/12/24 05:08:36;;;;;;;5.43;2.33;;;;;20.40;99782.00;;;;2070740;28;20210;-52
2022/12/24 05:09:36;;;;;;;5.40;2.33;;;;;20.40;99789.00;;;;2070567;28;20301;-53
2022/12/24 05:10:37;;;;;;;6.30;2.30;;;;;20.40;99789.00;;;;2070664;28;20637;-52
2022/12/24 05:11:37;;;;;;;5.40;2.30;;;;;20.40;99788.00;;;;2062135;28;20734;-51
2022/12/24 05:12:37;;;;;;;7.00;2.60;;;;;20.40;99788.00;;;;2061403;28;20241;-50
2022/12/24 05:13:37;;;;;;;6.23;2.77;;;;;20.40;99788.00;;;;2070819;28;20272;-51
2022/12/24 05:14:38;;;;;;;6.97;2.10;;;;;20.40;99788.00;;;;2070227;28;20254;-52
2022/12/24 05:15:39;;;;;;;5.50;2.27;;;;;20.40;99802.00;;;;2070832;28;20225;-52